Time;durP1;ratioP1;P1;durP2;ratioP2;P2;SDS_P1;SDS_P2;PMS_P1;PMS_P2;Temp;Humidity;BMP_temperature;BMP_pressure;BME280_temperature;BME280_humidity;BME280_pressure;Samples;Min_cycle;Max_cycle;Signal;HPM_P1;HPM_P2
2023/10/20 00:01:17;;;;;;;20.65;7.13;;;;;;;16.63;79.41;97559.47;10223174;28;20066;-64
2023/10/20 00:06:20;;;;;;;14.75;7.50;;;;;;;16.65;79.21;97556.50;10207862;28;20054;-65
2023/10/20 00:11:25;;;;;;;24.30;8.70;;;;;;;16.65;79.43;97553.78;10220047;28;20047;-64
2023/10/20 00:16:28;;;;;;;19.00;8.32;;;;;;;16.57;79.59;97549.78;10226248;28;20201;-64
2023/10/20 00:21:30;;;;;;;22.08;7.68;;;;;;;16.58;79.62;97551.38;10226549;28;20110;-64
2023/10/20 00:26:31;;;;;;;19.05;7.82;;;;;;;16.64;79.31;97560.28;10219826;28;20054;-64
2023/10/20 00:31:33;;;;;;;19.80;7.75;;;;;;;16.52;79.48;97560.66;10232084;28;20049;-64
2023/10/20 00:36:34;;;;;;;17.27;7.53;;;;;;;16.30;80.28;97549.44;10222382;28;20058;-64
2023/10/20 00:41:36;;;;;;;20.73;8.02;;;;;;;16.44;80.02;97526.00;10228139;28;20466;-63
2023/10/20 00:46:37;;;;;;;19.52;7.93;;;;;;;16.52;79.51;97506.41;10222273;28;20047;-65
2023/10/20 00:51:40;;;;;;;17.92;8.18;;;;;;;16.44;79.70;97505.13;10217783;28;20035;-63
2023/10/20 00:56:42;;;;;;;19.65;7.68;;;;;;;16.26;80.43;97489.56;10218135;28;20495;-63
2023/10/20 01:01:44;;;;;;;18.10;7.70;;;;;;;16.10;80.84;97488.88;10223176;28;20043;-64
2023/10/20 01:06:48;;;;;;;23.58;8.70;;;;;;;16.20;80.25;97488.78;10227612;28;20054;-64
2023/10/20 01:11:49;;;;;;;20.67;8.80;;;;;;;16.25;80.43;97468.97;10220952;28;20467;-60
2023/10/20 01:16:51;;;;;;;22.15;9.05;;;;;;;16.32;79.97;97474.06;10247072;28;20044;-61
2023/10/20 01:21:52;;;;;;;22.42;8.38;;;;;;;16.33;79.76;97468.38;10221359;28;20059;-60
2023/10/20 01:26:54;;;;;;;24.10;9.85;;;;;;;16.35;79.98;97479.75;10224283;28;20047;-60
2023/10/20 01:31:55;;;;;;;27.23;10.32;;;;;;;16.27;80.21;97472.19;10212759;28;20036;-61
2023/10/20 01:36:57;;;;;;;25.27;9.45;;;;;;;16.37;80.03;97457.75;10214964;28;20499;-60
2023/10/20 01:41:58;;;;;;;24.38;9.43;;;;;;;16.39;79.58;97440.13;10223764;28;20044;-60
2023/10/20 01:47:00;;;;;;;26.48;9.50;;;;;;;16.35;79.63;97433.66;10254088;28;20778;-60
2023/10/20 01:52:02;;;;;;;27.08;10.73;;;;;;;16.30;80.07;97438.31;10227967;28;20151;-61
2023/10/20 01:57:04;;;;;;;27.88;10.70;;;;;;;16.23;80.07;97420.47;10222272;28;20055;-62
2023/10/20 02:02:05;;;;;;;28.65;11.30;;;;;;;16.26;80.03;97413.66;10218301;28;20048;-63
2023/10/20 02:07:07;;;;;;;28.00;11.15;;;;;;;16.40;79.85;97401.03;10220538;28;20050;-61
2023/10/20 02:12:10;;;;;;;24.42;8.65;;;;;;;16.45;79.38;97386.66;10224504;28;20499;-60
2023/10/20 02:17:11;;;;;;;25.38;9.57;;;;;;;16.44;79.79;97376.88;10218043;28;20130;-61
2023/10/20 02:22:13;;;;;;;20.55;8.43;;;;;;;16.45;79.53;97354.13;10217522;28;20083;-63
2023/10/20 02:27:14;;;;;;;20.67;8.40;;;;;;;16.42;79.44;97347.34;10221573;28;20046;-63
2023/10/20 02:32:16;;;;;;;17.58;7.55;;;;;;;16.40;79.57;97335.97;10215303;28;20051;-63
2023/10/20 02:37:17;;;;;;;18.80;8.35;;;;;;;16.40;79.57;97327.03;10217360;28;20513;-62
2023/10/20 02:42:19;;;;;;;18.60;7.57;;;;;;;16.40;79.22;97308.88;10219934;28;20051;-63
2023/10/20 02:47:20;;;;;;;19.48;8.52;;;;;;;16.39;79.54;97314.56;10217670;28;20428;-64
2023/10/20 02:52:23;;;;;;;18.20;8.65;;;;;;;16.35;79.92;97306.22;10220375;28;20075;-64
2023/10/20 02:57:24;;;;;;;21.13;8.55;;;;;;;16.33;79.73;97303.00;10213840;28;20063;-63
2023/10/20 03:02:27;;;;;;;16.95;8.32;;;;;;;16.34;79.57;97285.63;10217334;28;20126;-62
2023/10/20 03:07:29;;;;;;;19.85;9.15;;;;;;;16.34;79.44;97274.00;10215526;28;20039;-63
2023/10/20 03:12:31;;;;;;;19.85;9.32;;;;;;;16.31;79.44;97261.00;10245681;28;20054;-64
2023/10/20 03:17:32;;;;;;;22.48;10.15;;;;;;;16.32;79.41;97259.91;10219358;28;20048;-63
2023/10/20 03:22:35;;;;;;;23.77;11.10;;;;;;;16.28;79.52;97240.72;10215575;28;20142;-62
2023/10/20 03:27:37;;;;;;;24.60;10.60;;;;;;;16.22;79.67;97234.53;10216694;28;20051;-63
2023/10/20 03:32:39;;;;;;;21.77;11.65;;;;;;;16.19;79.67;97213.47;10218836;28;20046;-62
2023/10/20 03:37:41;;;;;;;24.80;12.23;;;;;;;16.19;79.54;97215.34;10220593;28;20039;-62
2023/10/20 03:42:43;;;;;;;23.90;10.82;;;;;;;16.19;79.61;97218.88;10218538;28;20044;-61
2023/10/20 03:47:44;;;;;;;23.75;11.32;;;;;;;16.19;79.78;97201.78;10224389;28;20066;-62
2023/10/20 03:52:47;;;;;;;24.08;11.63;;;;;;;16.18;79.59;97186.63;10229413;28;20039;-60
2023/10/20 03:57:49;;;;;;;22.73;11.38;;;;;;;16.17;79.72;97179.59;10225101;28;20146;-62
2023/10/20 04:02:51;;;;;;;23.45;10.85;;;;;;;16.14;79.58;97172.06;10223335;28;20051;-61
2023/10/20 04:07:53;;;;;;;22.90;11.80;;;;;;;16.15;79.73;97165.53;10227271;28;20592;-61
2023/10/20 04:12:54;;;;;;;21.45;10.85;;;;;;;16.09;79.75;97159.34;10225269;28;20133;-61
2023/10/20 04:17:56;;;;;;;18.67;9.73;;;;;;;16.01;79.83;97131.00;10215729;28;20359;-61
2023/10/20 04:22:58;;;;;;;22.38;10.50;;;;;;;16.02;79.76;97113.66;10219865;28;20039;-61
2023/10/20 04:28:12;;;;;;;19.63;9.90;;;;;;;16.00;80.06;97104.22;10223973;28;20047;-60
2023/10/20 05:00:31;;;;;;;20.40;11.80;;;;;;;15.74;80.08;97023.31;10223936;28;20518;-61
2023/10/20 05:10:28;;;;;;;20.83;11.25;;;;;;;15.75;79.83;97011.38;10220182;28;20079;-59
2023/10/20 05:15:33;;;;;;;21.02;10.68;;;;;;;15.76;79.88;97004.06;10221993;28;20106;-59
2023/10/20 05:20:36;;;;;;;20.63;11.15;;;;;;;15.79;79.64;96993.44;10221201;28;20053;-60
2023/10/20 05:25:47;;;;;;;19.90;11.27;;;;;;;15.80;79.53;96978.81;10223672;28;20063;-61
2023/10/20 05:30:49;;;;;;;21.73;10.40;;;;;;;15.77;79.66;96971.25;10223249;28;20155;-60
2023/10/20 05:35:51;;;;;;;20.05;10.80;;;;;;;15.77;79.70;96962.34;10229283;28;20046;-61
2023/10/20 05:40:59;;;;;;;19.08;10.20;;;;;;;15.69;79.74;96949.44;10226481;28;20039;-63
2023/10/20 05:46:02;;;;;;;21.25;10.30;;;;;;;15.62;80.33;96938.94;10224887;28;20043;-64
2023/10/20 05:51:04;;;;;;;21.10;11.45;;;;;;;15.52;80.55;96907.44;10224668;28;20114;-66
2023/10/20 05:56:06;;;;;;;19.88;11.00;;;;;;;15.47;80.66;96915.63;10222798;28;20043;-64
2023/10/20 06:01:11;;;;;;;19.27;10.02;;;;;;;15.45;80.79;96891.56;10223333;28;20059;-65
2023/10/20 06:06:13;;;;;;;15.93;9.73;;;;;;;15.49;80.30;96856.59;10216462;28;20043;-64
2023/10/20 06:11:14;;;;;;;15.20;9.57;;;;;;;15.53;80.47;96863.00;10217564;28;20055;-61
2023/10/20 06:16:16;;;;;;;21.10;9.80;;;;;;;15.54;80.14;96871.94;10218142;28;20180;-62
2023/10/20 06:21:17;;;;;;;18.13;9.55;;;;;;;15.60;79.98;96903.25;10218884;28;20062;-61
2023/10/20 06:26:19;;;;;;;17.45;10.25;;;;;;;15.63;80.11;96902.66;10215429;28;20048;-61
2023/10/20 06:36:34;;;;;;;20.15;10.85;;;;;;;15.63;80.18;96887.22;10216398;28;20047;-63
2023/10/20 06:41:36;;;;;;;17.00;10.68;;;;;;;15.61;80.21;96875.88;10212783;28;20289;-61
2023/10/20 06:46:37;;;;;;;18.33;9.05;;;;;;;15.64;79.89;96867.19;10212475;28;20055;-62
2023/10/20 06:51:39;;;;;;;19.15;10.43;;;;;;;15.59;80.40;96852.91;10222328;28;20134;-62
2023/10/20 06:56:40;;;;;;;17.77;8.88;;;;;;;15.48;80.53;96833.31;10217124;28;20043;-62
2023/10/20 07:01:43;;;;;;;14.98;8.85;;;;;;;15.47;80.34;96804.66;10220270;28;20048;-68
2023/10/20 07:06:46;;;;;;;14.00;8.93;;;;;;;15.42;80.65;96788.47;10215671;28;20047;-67
2023/10/20 07:11:48;;;;;;;14.63;9.07;;;;;;;15.41;80.63;96767.94;10216173;28;20393;-68
2023/10/20 07:16:50;;;;;;;14.25;9.07;;;;;;;15.41;80.61;96744.38;10222700;28;20067;-66
2023/10/20 07:21:53;;;;;;;16.63;9.60;;;;;;;15.41;80.46;96735.47;10219374;28;20043;-67
2023/10/20 07:26:55;;;;;;;23.98;10.30;;;;;;;15.41;80.52;96746.28;10215625;28;20040;-67
2023/10/20 07:31:58;;;;;;;14.23;8.88;;;;;;;15.41;80.42;96740.88;10218791;28;20047;-68
2023/10/20 07:37:00;;;;;;;15.38;9.77;;;;;;;15.49;80.43;96736.69;10220363;28;20067;-65
2023/10/20 07:42:02;;;;;;;15.88;9.98;;;;;;;15.54;80.16;96729.28;10216542;28;20287;-68
2023/10/20 07:47:03;;;;;;;17.42;10.13;;;;;;;15.53;80.11;96743.13;10215592;28;20050;-68
2023/10/20 07:52:05;;;;;;;15.57;8.65;;;;;;;15.45;80.28;96739.97;10216512;28;20114;-65
2023/10/20 07:57:07;;;;;;;14.63;8.55;;;;;;;15.41;80.24;96733.56;10217206;28;20036;-69
2023/10/20 08:02:09;;;;;;;15.93;9.00;;;;;;;15.41;80.51;96735.47;10216740;28;20066;-67
2023/10/20 08:07:11;;;;;;;13.45;8.73;;;;;;;15.46;80.10;96729.94;10216257;28;20047;-68
2023/10/20 08:12:13;;;;;;;20.05;8.80;;;;;;;15.51;80.11;96724.44;10218137;28;20542;-65
2023/10/20 08:17:14;;;;;;;13.57;8.57;;;;;;;15.53;80.14;96719.53;10218728;28;20044;-61
2023/10/20 08:22:16;;;;;;;15.05;8.75;;;;;;;15.65;79.97;96721.78;10217907;28;20063;-61
2023/10/20 08:27:18;;;;;;;14.15;8.65;;;;;;;15.68;80.23;96715.78;10221782;28;20054;-63
2023/10/20 08:32:20;;;;;;;12.98;8.27;;;;;;;15.70;80.46;96718.16;10219593;28;20077;-61
2023/10/20 08:37:21;;;;;;;11.88;8.10;;;;;;;15.77;80.32;96721.31;10226275;28;20049;-61
2023/10/20 08:42:23;;;;;;;14.85;8.02;;;;;;;15.78;80.10;96714.81;10223972;28;20333;-60
2023/10/20 08:47:25;;;;;;;13.98;9.10;;;;;;;15.83;80.19;96723.63;10220788;28;20435;-61
2023/10/20 08:52:27;;;;;;;14.50;8.93;;;;;;;15.84;80.06;96736.06;10218912;28;20035;-60
2023/10/20 08:57:29;;;;;;;11.88;7.50;;;;;;;15.86;80.47;96742.00;10222831;28;20048;-60
2023/10/20 09:02:37;;;;;;;14.10;8.57;;;;;;;15.89;80.44;96735.16;10219842;28;20399;-63
2023/10/20 09:07:39;;;;;;;13.50;8.38;;;;;;;15.91;80.46;96740.28;10218005;28;20124;-62
2023/10/20 09:12:41;;;;;;;16.08;7.95;;;;;;;15.95;80.04;96750.22;10220295;28;20048;-61
2023/10/20 09:17:44;;;;;;;12.93;8.20;;;;;;;16.06;79.83;96748.94;10218605;28;20047;-63
2023/10/20 09:22:46;;;;;;;13.30;8.57;;;;;;;16.11;80.23;96750.72;10221319;28;20047;-63
2023/10/20 09:27:48;;;;;;;11.07;7.60;;;;;;;16.16;80.01;96733.59;10219863;28;20050;-65
2023/10/20 09:32:49;;;;;;;13.60;8.18;;;;;;;16.25;79.86;96734.47;10223369;28;20062;-65
2023/10/20 09:37:55;;;;;;;9.93;7.50;;;;;;;16.34;79.91;96748.13;10253739;28;20536;-65
2023/10/20 09:42:59;;;;;;;14.90;6.85;;;;;;;16.48;79.45;96761.66;10216917;28;20051;-65
2023/10/20 09:48:19;;;;;;;11.60;7.00;;;;;;;16.56;79.47;96747.38;10221676;28;20075;-65
2023/10/20 09:53:21;;;;;;;12.35;7.75;;;;;;;16.65;79.53;96748.28;10225933;28;20629;-66
2023/10/20 09:58:26;;;;;;;11.85;7.32;;;;;;;16.65;79.46;96748.28;10213971;28;20496;-62
2023/10/20 10:03:29;;;;;;;10.93;7.03;;;;;;;16.65;79.53;96753.72;10219846;28;20121;-64
2023/10/20 10:08:31;;;;;;;11.73;6.60;;;;;;;16.82;79.19;96744.94;10215931;28;20436;-65
2023/10/20 10:13:36;;;;;;;11.68;7.68;;;;;;;16.78;79.57;96817.97;10246307;28;20044;-64
2023/10/20 10:18:45;;;;;;;10.55;7.05;;;;;;;16.69;79.89;96821.72;10219878;28;20054;-63
2023/10/20 10:24:07;;;;;;;10.63;7.38;;;;;;;16.60;79.86;96841.38;10215317;28;20122;-62
2023/10/20 10:29:09;;;;;;;11.93;7.72;;;;;;;16.62;80.07;96847.31;10220953;28;20047;-64
2023/10/20 10:34:10;;;;;;;11.60;7.65;;;;;;;16.91;79.31;96840.00;10218123;28;20321;-63
2023/10/20 10:39:23;;;;;;;11.85;6.78;;;;;;;17.08;79.26;96840.16;10213407;28;20055;-63
2023/10/20 10:44:25;;;;;;;9.40;7.30;;;;;;;17.08;79.15;96825.78;10215594;28;20977;-62
2023/10/20 10:49:27;;;;;;;10.27;7.18;;;;;;;17.19;78.72;96803.53;10213155;28;20510;-60
2023/10/20 10:54:29;;;;;;;11.85;7.03;;;;;;;17.50;78.44;96807.47;10216639;28;20142;-61
2023/10/20 10:59:31;;;;;;;11.63;6.78;;;;;;;17.59;78.51;96797.44;10213851;28;20065;-59
2023/10/20 11:04:33;;;;;;;11.85;6.80;;;;;;;17.83;78.25;96797.09;10215271;28;20398;-60
2023/10/20 11:09:35;;;;;;;9.15;6.47;;;;;;;18.04;78.07;96787.34;10213750;28;20550;-63
2023/10/20 11:14:39;;;;;;;17.00;7.95;;;;;;;18.18;77.91;96797.31;10209983;28;20043;-61
2023/10/20 11:19:42;;;;;;;12.93;7.63;;;;;;;18.38;77.76;96809.53;10216377;28;20055;-61
2023/10/20 11:24:52;;;;;;;7.90;6.07;;;;;;;18.42;77.48;96805.91;10212065;28;20075;-62
2023/10/20 11:29:53;;;;;;;9.35;6.68;;;;;;;18.26;78.05;96795.75;10219966;28;20473;-64
2023/10/20 11:34:59;;;;;;;12.02;7.50;;;;;;;18.36;78.24;96804.41;10215619;28;20047;-61
2023/10/20 11:40:01;;;;;;;10.75;6.93;;;;;;;18.46;78.10;96799.81;10214090;28;20043;-62
2023/10/20 11:45:03;;;;;;;11.70;6.72;;;;;;;18.65;77.50;96778.59;10220197;28;20062;-64
2023/10/20 11:50:09;;;;;;;11.82;7.55;;;;;;;18.71;77.47;96771.88;10215222;28;20039;-65
2023/10/20 11:55:11;;;;;;;10.70;7.83;;;;;;;18.81;77.18;96770.81;10213742;28;20039;-65
2023/10/20 12:00:13;;;;;;;9.77;7.22;;;;;;;18.79;77.11;96778.47;10213895;28;20074;-63
2023/10/20 12:05:15;;;;;;;11.40;7.65;;;;;;;18.76;76.80;96800.84;10226902;28;20054;-65
2023/10/20 12:10:17;;;;;;;10.27;7.07;;;;;;;18.80;76.26;96786.34;10225299;28;20063;-66
2023/10/20 12:15:19;;;;;;;7.47;6.15;;;;;;;18.92;76.50;96783.00;10217222;28;20286;-64
2023/10/20 12:20:20;;;;;;;8.85;6.72;;;;;;;18.82;76.51;96783.31;10220347;28;20084;-65
2023/10/20 12:25:22;;;;;;;9.52;7.30;;;;;;;18.90;75.97;96792.59;10218775;28;20036;-66
2023/10/20 12:30:23;;;;;;;8.93;7.53;;;;;;;18.79;75.73;96813.84;10221679;28;20558;-66
2023/10/20 12:35:25;;;;;;;12.88;7.38;;;;;;;18.64;75.83;96817.78;10220546;28;20642;-66
2023/10/20 12:40:26;;;;;;;10.32;7.05;;;;;;;18.54;75.76;96827.06;10222913;28;20570;-65
2023/10/20 12:45:28;;;;;;;10.65;7.47;;;;;;;18.44;75.55;96830.03;10222642;28;20375;-65
2023/10/20 12:50:32;;;;;;;11.07;7.30;;;;;;;18.33;75.64;96837.69;10230521;28;20041;-66
2023/10/20 12:55:34;;;;;;;12.32;7.80;;;;;;;18.26;75.76;96828.38;10223820;28;20048;-65
2023/10/20 13:00:36;;;;;;;11.45;7.25;;;;;;;18.27;75.49;96833.50;10228641;28;20052;-66
2023/10/20 13:05:37;;;;;;;12.75;9.05;;;;;;;18.26;75.36;96845.47;10222497;28;20051;-65
2023/10/20 13:10:40;;;;;;;13.05;8.80;;;;;;;18.19;75.63;96824.19;10221925;28;20059;-65
2023/10/20 13:15:41;;;;;;;11.65;8.48;;;;;;;17.94;76.53;96814.00;10223502;28;20051;-66
2023/10/20 13:20:43;;;;;;;14.50;8.93;;;;;;;17.91;76.75;96815.41;10219378;28;20048;-67
2023/10/20 13:25:45;;;;;;;16.23;9.80;;;;;;;17.91;76.79;96837.16;10219013;28;20454;-66
2023/10/20 13:30:47;;;;;;;15.10;8.95;;;;;;;17.93;76.67;96861.28;10224316;28;20070;-66
2023/10/20 13:36:08;;;;;;;14.23;9.55;;;;;;;18.04;76.52;96858.00;10216980;28;20143;-66
2023/10/20 13:41:11;;;;;;;15.52;8.98;;;;;;;18.18;76.50;96862.56;10222683;28;20051;-65
2023/10/20 13:46:13;;;;;;;14.48;9.65;;;;;;;18.27;76.65;96870.78;10217975;28;20048;-64
2023/10/20 13:51:15;;;;;;;14.38;9.85;;;;;;;18.37;76.62;96876.75;10221802;28;20058;-66
2023/10/20 13:56:17;;;;;;;20.20;10.55;;;;;;;18.46;76.68;96868.59;10220713;28;20865;-67
2023/10/20 14:01:18;;;;;;;12.73;8.50;;;;;;;18.64;76.37;96864.03;10222369;28;21092;-62
2023/10/20 14:06:20;;;;;;;8.00;5.60;;;;;;;18.77;76.52;96854.16;10217838;28;20056;-67
2023/10/20 14:11:21;;;;;;;9.75;6.28;;;;;;;18.87;76.63;96845.75;10223729;28;20047;-68
2023/10/20 14:16:23;;;;;;;7.88;4.25;;;;;;;18.95;76.66;96847.66;10226149;28;20062;-66
2023/10/20 14:21:24;;;;;;;8.32;4.10;;;;;;;19.00;76.72;96869.31;10221879;28;20055;-67
2023/10/20 14:26:26;;;;;;;2.45;1.98;;;;;;;18.94;76.91;96888.84;10211342;28;20047;-66
2023/10/20 14:31:29;;;;;;;2.63;1.13;;;;;;;18.89;77.32;96900.66;10216922;28;20119;-67
2023/10/20 14:36:32;;;;;;;1.50;1.15;;;;;;;18.83;77.03;96935.38;10229184;28;20395;-66
2023/10/20 14:41:34;;;;;;;1.55;0.60;;;;;;;18.79;77.32;96918.06;10258561;28;20118;-66
2023/10/20 14:46:36;;;;;;;0.55;0.40;;;;;;;18.78;76.81;96945.59;10249756;28;20131;-65
2023/10/20 14:51:38;;;;;;;2.28;0.17;;;;;;;18.68;76.23;96956.72;10222067;28;20406;-67
2023/10/20 14:56:40;;;;;;;0.08;0.00;;;;;;;18.54;75.26;96973.13;10254583;28;20075;-66
2023/10/20 15:01:41;;;;;;;0.10;0.00;;;;;;;18.49;74.54;96984.94;10227189;28;20110;-67
2023/10/20 15:06:44;;;;;;;0.17;0.17;;;;;;;18.51;74.07;96995.53;10211693;28;20090;-65
2023/10/20 15:11:46;;;;;;;0.20;0.05;;;;;;;18.51;74.07;97006.41;10225707;28;20051;-60
2023/10/20 15:16:47;;;;;;;0.08;0.00;;;;;;;18.43;73.65;96995.16;10244756;28;20055;-64
2023/10/20 15:21:49;;;;;;;0.15;0.10;;;;;;;18.36;73.59;97024.69;10212476;28;20051;-63
2023/10/20 15:26:51;;;;;;;1.50;0.10;;;;;;;18.41;73.41;97023.78;10239448;28;20047;-62
2023/10/20 15:31:53;;;;;;;0.82;0.03;;;;;;;18.51;73.35;97030.88;10239685;28;20047;-60
2023/10/20 15:36:54;;;;;;;0.45;0.10;;;;;;;18.47;73.55;97036.13;10245982;28;20077;-61
2023/10/20 15:41:56;;;;;;;0.30;0.20;;;;;;;18.51;73.47;97042.56;10236143;28;20051;-61
2023/10/20 15:46:58;;;;;;;0.10;0.10;;;;;;;18.45;73.75;97041.09;10234502;28;20047;-61
2023/10/20 15:52:00;;;;;;;0.55;0.20;;;;;;;18.34;73.81;97073.13;10264594;28;20050;-62
2023/10/20 15:57:02;;;;;;;0.52;0.32;;;;;;;18.34;73.70;97094.09;10252976;28;20079;-62
2023/10/20 16:02:03;;;;;;;0.85;0.20;;;;;;;18.19;73.75;97100.69;10244930;28;20039;-59
2023/10/20 16:07:05;;;;;;;0.40;0.15;;;;;;;18.11;73.91;97128.59;10257471;28;20126;-60
2023/10/20 16:12:07;;;;;;;0.57;0.10;;;;;;;18.11;73.69;97132.13;10233181;28;20047;-60
2023/10/20 16:17:11;;;;;;;0.20;0.10;;;;;;;17.98;73.69;97136.47;10220713;28;20135;-61
2023/10/20 16:22:13;;;;;;;0.10;0.10;;;;;;;17.87;73.98;97145.94;10226528;28;20051;-62
2023/10/20 16:27:14;;;;;;;0.20;0.10;;;;;;;17.83;73.78;97162.03;10226876;28;20057;-64
2023/10/20 16:32:20;;;;;;;1.30;0.10;;;;;;;17.81;73.66;97164.22;10221469;28;20059;-61
2023/10/20 16:37:21;;;;;;;0.38;0.10;;;;;;;17.75;73.57;97164.63;10220078;28;20160;-61
2023/10/20 16:42:24;;;;;;;0.20;0.10;;;;;;;17.66;73.74;97185.47;10253249;28;20047;-59
2023/10/20 16:47:25;;;;;;;0.30;0.10;;;;;;;17.64;73.56;97191.97;10232434;28;20047;-60
2023/10/20 16:52:27;;;;;;;0.65;0.10;;;;;;;17.55;73.64;97201.91;10266952;28;20051;-62
2023/10/20 16:57:29;;;;;;;0.43;0.10;;;;;;;17.51;73.64;97206.34;10234838;28;20486;-59
2023/10/20 17:02:30;;;;;;;0.30;0.20;;;;;;;17.47;73.56;97190.94;10215684;28;20043;-59
2023/10/20 17:07:32;;;;;;;0.98;0.20;;;;;;;17.40;73.46;97200.28;10219128;28;20051;-59
2023/10/20 17:12:33;;;;;;;2.05;0.35;;;;;;;17.34;73.23;97206.13;10223807;28;20047;-58
2023/10/20 17:17:35;;;;;;;0.10;0.10;;;;;;;17.27;73.29;97236.34;10221258;28;20050;-59
2023/10/20 17:22:36;;;;;;;2.25;0.30;;;;;;;17.20;73.45;97241.34;10214835;28;20083;-58
2023/10/20 17:27:38;;;;;;;1.00;0.38;;;;;;;17.05;73.72;97274.97;10212269;28;20055;-58
2023/10/20 17:32:39;;;;;;;2.03;0.30;;;;;;;17.01;73.43;97269.31;10214142;28;20043;-60
2023/10/20 17:37:41;;;;;;;2.15;0.30;;;;;;;16.98;73.41;97253.63;10221001;28;20043;-60
2023/10/20 17:42:42;;;;;;;0.68;0.30;;;;;;;16.98;73.48;97255.53;10311692;23;20159;-61
2023/10/20 17:47:44;;;;;;;0.73;0.20;;;;;;;16.93;73.39;97269.97;10349344;28;20061;-60
2023/10/20 17:52:45;;;;;;;0.47;0.22;;;;;;;16.92;73.23;97278.41;10362452;28;20049;-60
2023/10/20 17:57:48;;;;;;;2.28;0.30;;;;;;;16.90;72.83;97253.47;10362257;28;20045;-60
2023/10/20 18:02:50;;;;;;;2.00;0.45;;;;;;;16.80;73.19;97270.66;10357282;28;20409;-61
2023/10/20 18:07:52;;;;;;;1.83;0.30;;;;;;;16.71;73.09;97275.97;10366929;28;20133;-59
2023/10/20 18:12:53;;;;;;;2.05;0.28;;;;;;;16.61;73.29;97285.03;10372643;28;20038;-59
2023/10/20 18:17:55;;;;;;;0.43;0.20;;;;;;;16.50;73.31;97294.38;10375667;28;20042;-60
2023/10/20 18:22:56;;;;;;;2.38;0.40;;;;;;;16.33;73.59;97288.63;10377103;28;20049;-61
2023/10/20 18:27:59;;;;;;;1.23;0.50;;;;;;;16.22;74.04;97301.50;10373866;28;20038;-61
2023/10/20 18:33:01;;;;;;;1.95;0.40;;;;;;;16.22;74.21;97315.06;10374429;28;20073;-61
2023/10/20 18:38:02;;;;;;;1.70;0.57;;;;;;;16.29;74.46;97326.38;10391844;28;20065;-61
2023/10/20 18:43:04;;;;;;;0.50;0.30;;;;;;;16.31;74.68;97316.03;10371322;28;20049;-59
2023/10/20 18:48:07;;;;;;;1.10;0.60;;;;;;;16.41;74.42;97306.97;10367116;28;20129;-60
2023/10/20 18:53:08;;;;;;;0.95;0.47;;;;;;;16.47;74.32;97308.53;10362247;28;20088;-59
2023/10/20 18:58:10;;;;;;;3.65;1.05;;;;;;;16.50;74.18;97321.50;10363601;28;20045;-60
2023/10/20 19:03:11;;;;;;;3.97;0.57;;;;;;;16.54;74.38;97327.97;10354005;28;20054;-61
2023/10/20 19:08:13;;;;;;;2.63;0.80;;;;;;;16.57;74.16;97332.81;10359466;28;20132;-60
2023/10/20 19:13:15;;;;;;;1.67;0.75;;;;;;;16.52;73.98;97329.34;10356886;28;20538;-59
2023/10/20 19:18:16;;;;;;;1.25;0.60;;;;;;;16.43;74.08;97332.72;10360783;28;20057;-59
2023/10/20 19:23:18;;;;;;;2.28;1.08;;;;;;;16.35;74.19;97343.34;10360863;28;20057;-58
2023/10/20 19:28:19;;;;;;;5.43;2.83;;;;;;;16.21;74.07;97346.78;10353704;28;20057;-60
2023/10/20 19:33:21;;;;;;;2.95;2.10;;;;;;;16.07;74.13;97334.97;10355485;28;20051;-61
2023/10/20 19:38:24;;;;;;;12.80;7.15;;;;;;;15.92;74.31;97344.06;10357662;23;20053;-60
2023/10/20 19:43:26;;;;;;;11.35;4.93;;;;;;;15.78;73.92;97354.75;10358793;28;20074;-60
2023/10/20 19:48:28;;;;;;;8.43;4.43;;;;;;;15.66;74.08;97374.03;10352558;28;20046;-60
2023/10/20 19:53:31;;;;;;;7.90;3.33;;;;;;;15.52;74.14;97383.91;10360498;28;21075;-59
2023/10/20 19:58:32;;;;;;;6.65;3.45;;;;;;;15.39;74.49;97396.16;10353485;28;20131;-60
2023/10/20 20:03:34;;;;;;;8.18;3.75;;;;;;;15.30;74.62;97388.91;10340672;28;20129;-60
2023/10/20 20:08:36;;;;;;;7.88;3.80;;;;;;;15.16;74.90;97403.03;10341301;28;20049;-60
2023/10/20 20:13:37;;;;;;;7.35;3.78;;;;;;;15.07;74.91;97399.31;10343969;28;20042;-60
2023/10/20 20:18:42;;;;;;;7.47;3.50;;;;;;;14.93;75.08;97404.53;10345438;28;20551;-59
2023/10/20 20:23:44;;;;;;;9.90;4.50;;;;;;;14.85;75.31;97395.09;10331883;28;20076;-60
2023/10/20 20:28:47;;;;;;;12.20;4.97;;;;;;;14.79;75.04;97398.06;10363185;28;20041;-59
2023/10/20 20:33:48;;;;;;;7.88;4.20;;;;;;;14.72;74.83;97402.97;10356261;28;20112;-59
2023/10/20 20:38:50;;;;;;;13.82;5.00;;;;;;;14.63;75.08;97403.56;10376683;28;20046;-60
2023/10/20 20:43:59;;;;;;;9.48;4.30;;;;;;;14.57;74.95;97401.13;10361773;28;20049;-60
2023/10/20 20:49:01;;;;;;;8.52;3.95;;;;;;;14.50;75.08;97416.81;10375800;28;20057;-60
2023/10/20 20:54:02;;;;;;;10.32;4.25;;;;;;;14.46;75.26;97413.84;10346126;28;20083;-59
2023/10/20 20:59:04;;;;;;;10.73;5.25;;;;;;;14.40;75.23;97415.75;10362435;28;20057;-60
2023/10/20 21:04:06;;;;;;;9.48;4.07;;;;;;;14.39;75.25;97413.31;10358415;28;20145;-59
2023/10/20 21:09:09;;;;;;;5.72;3.33;;;;;;;14.37;75.56;97420.88;10361098;28;20057;-60
2023/10/20 21:14:10;;;;;;;9.65;3.33;;;;;;;14.41;75.63;97428.16;10361605;28;20142;-59
2023/10/20 21:19:12;;;;;;;6.07;2.72;;;;;;;14.31;76.23;97428.16;10363073;28;20057;-59
2023/10/20 21:24:15;;;;;;;3.70;2.63;;;;;;;14.45;76.32;97431.94;10359546;28;20049;-59
2023/10/20 21:29:16;;;;;;;8.45;4.80;;;;;;;14.59;75.84;97398.94;10349167;28;20129;-60
2023/10/20 21:34:18;;;;;;;3.58;2.42;;;;;;;14.56;76.13;97394.09;10344284;28;20136;-58
2023/10/20 21:39:21;;;;;;;4.72;2.13;;;;;;;14.65;76.13;97400.56;10377094;28;20520;-59
2023/10/20 21:44:23;;;;;;;2.88;2.08;;;;;;;14.76;76.14;97401.34;10363396;28;20050;-59
2023/10/20 21:49:24;;;;;;;2.42;2.03;;;;;;;14.77;76.17;97420.00;10344540;28;20053;-60
2023/10/20 21:54:26;;;;;;;5.47;2.28;;;;;;;14.74;76.05;97411.63;10363140;28;20050;-60
2023/10/20 21:59:29;;;;;;;4.43;2.25;;;;;;;14.81;76.07;97418.38;10346069;28;20145;-59
2023/10/20 22:04:31;;;;;;;4.80;2.90;;;;;;;14.84;76.15;97423.22;10362197;28;20117;-60
2023/10/20 22:09:32;;;;;;;3.60;2.55;;;;;;;14.88;75.97;97435.09;10359517;28;20682;-59
2023/10/20 22:14:53;;;;;;;4.93;2.72;;;;;;;14.94;75.62;97438.59;10360685;28;20033;-61
2023/10/20 22:19:54;;;;;;;4.25;2.70;;;;;;;14.98;76.02;97431.53;10343909;28;20081;-60
2023/10/20 22:24:56;;;;;;;4.38;2.88;;;;;;;15.00;76.16;97442.09;10358001;28;20121;-60
2023/10/20 22:29:58;;;;;;;5.18;2.58;;;;;;;14.98;76.24;97433.44;10345400;28;20085;-59
2023/10/20 22:35:00;;;;;;;3.40;1.98;;;;;;;14.99;76.41;97452.09;10361244;28;20041;-60
2023/10/20 22:40:04;;;;;;;3.90;2.53;;;;;;;15.00;76.42;97447.50;10353817;28;20045;-59
2023/10/20 22:45:06;;;;;;;5.22;3.00;;;;;;;14.98;76.39;97445.06;10359828;28;20154;-61
2023/10/20 22:50:08;;;;;;;5.13;3.55;;;;;;;15.03;76.37;97452.38;10343201;28;20054;-60
2023/10/20 22:55:09;;;;;;;3.72;2.75;;;;;;;15.04;76.63;97462.09;10356326;28;20054;-61
2023/10/20 23:00:12;;;;;;;4.68;2.55;;;;;;;14.99;76.79;97449.41;10359064;28;20038;-62
2023/10/20 23:05:14;;;;;;;2.15;1.90;;;;;;;14.97;77.12;97431.81;10344620;28;20126;-61
2023/10/20 23:10:16;;;;;;;4.90;2.60;;;;;;;14.88;77.35;97437.00;10362392;28;20050;-61
2023/10/20 23:15:17;;;;;;;6.03;1.83;;;;;;;14.67;77.81;97433.53;10360717;28;20045;-60
2023/10/20 23:20:19;;;;;;;3.78;2.50;;;;;;;14.72;77.70;97421.91;10341558;28;20104;-61
2023/10/20 23:25:21;;;;;;;7.30;1.90;;;;;;;14.53;78.56;97433.25;10355067;28;20179;-60
2023/10/20 23:30:23;;;;;;;4.80;2.47;;;;;;;14.44;78.78;97432.22;10343845;28;20456;-60
2023/10/20 23:35:24;;;;;;;3.58;2.22;;;;;;;14.52;78.63;97436.25;10358016;28;20050;-59
2023/10/20 23:40:26;;;;;;;3.10;2.63;;;;;;;14.67;78.27;97436.22;10355314;28;20401;-59
2023/10/20 23:45:27;;;;;;;5.43;2.03;;;;;;;14.75;78.00;97429.47;10341979;28;20448;-60
2023/10/20 23:50:29;;;;;;;5.18;2.78;;;;;;;14.63;78.22;97433.28;10356580;28;20125;-61